Time;durP1;ratioP1;P1;durP2;ratioP2;P2;SDS_P1;SDS_P2;PMS_P1;PMS_P2;Temp;Humidity;BMP_temperature;BMP_pressure;BME280_temperature;BME280_humidity;BME280_pressure;Samples;Min_cycle;Max_cycle;Signal;HPM_P1;HPM_P2
2022/05/05 00:02:14;;;;;;;26.67;17.40;;;26.80;99.90;;;;;;5072986;28;20026;-64
2022/05/05 00:04:41;;;;;;;29.15;16.85;;;26.80;99.90;;;;;;5073262;28;20036;-65
2022/05/05 00:07:08;;;;;;;26.83;17.45;;;26.80;99.90;;;;;;5073147;28;20370;-63
2022/05/05 00:09:35;;;;;;;22.38;16.40;;;26.90;99.90;;;;;;5073008;28;20078;-63
2022/05/05 00:14:31;;;;;;;26.88;17.70;;;27.00;99.90;;;;;;5072553;28;20048;-63
2022/05/05 00:17:00;;;;;;;26.55;16.77;;;27.00;99.90;;;;;;5073835;28;20389;-64
2022/05/05 00:19:30;;;;;;;29.95;16.95;;;27.10;99.90;;;;;;5073624;28;20398;-63
2022/05/05 00:21:57;;;;;;;20.58;15.82;;;27.10;99.90;;;;;;5073764;28;20100;-64
2022/05/05 00:24:24;;;;;;;26.90;17.40;;;27.20;99.90;;;;;;5073261;28;20033;-64
2022/05/05 00:26:51;;;;;;;19.05;15.80;;;27.30;99.90;;;;;;5073607;28;20426;-64
2022/05/05 00:29:19;;;;;;;26.10;16.10;;;27.30;99.90;;;;;;5073651;28;20024;-62
2022/05/05 00:31:46;;;;;;;21.15;15.27;;;27.40;99.90;;;;;;5073771;28;20050;-65
2022/05/05 00:34:13;;;;;;;19.10;15.25;;;27.40;99.90;;;;;;5073507;28;20385;-63
2022/05/05 00:36:40;;;;;;;21.33;16.38;;;27.50;99.90;;;;;;5073612;28;20410;-65
2022/05/05 00:39:11;;;;;;;18.00;14.63;;;27.60;99.90;;;;;;5073281;28;20086;-64
2022/05/05 00:41:43;;;;;;;21.42;16.33;;;27.60;99.90;;;;;;5073591;28;20070;-64
2022/05/05 00:44:10;;;;;;;19.70;15.15;;;27.60;99.90;;;;;;5073524;28;20032;-65
2022/05/05 00:46:37;;;;;;;21.95;15.77;;;27.70;99.90;;;;;;5073260;28;20027;-65
2022/05/05 00:49:04;;;;;;;21.65;16.92;;;27.60;99.90;;;;;;5073499;28;20036;-66
2022/05/05 00:51:31;;;;;;;19.55;16.48;;;27.60;99.90;;;;;;5073354;28;20029;-67
2022/05/05 00:53:58;;;;;;;22.98;15.98;;;27.60;99.90;;;;;;5072920;28;20362;-67
2022/05/05 00:56:25;;;;;;;22.20;16.25;;;27.70;99.90;;;;;;5073203;28;20024;-66
2022/05/05 00:58:56;;;;;;;23.10;16.48;;;27.70;99.90;;;;;;5073236;28;20028;-64
2022/05/05 01:01:23;;;;;;;21.45;15.30;;;27.70;99.90;;;;;;5073275;28;20100;-66
2022/05/05 01:03:51;;;;;;;18.17;14.45;;;27.80;99.90;;;;;;5072985;28;20469;-61
2022/05/05 01:06:17;;;;;;;18.10;13.63;;;27.90;99.90;;;;;;5074084;28;20034;-63
2022/05/05 01:08:44;;;;;;;20.80;14.50;;;28.00;99.90;;;;;;5077384;28;20029;-64
2022/05/05 01:11:11;;;;;;;20.88;14.18;;;28.00;99.90;;;;;;5077635;28;20028;-65
2022/05/05 01:13:40;;;;;;;19.10;12.77;;;28.10;99.90;;;;;;5077766;28;20055;-62
2022/05/05 01:16:07;;;;;;;20.63;12.73;;;28.20;99.90;;;;;;5077103;28;20056;-63
2022/05/05 01:18:34;;;;;;;15.23;10.85;;;28.20;99.90;;;;;;5077816;28;20048;-62
2022/05/05 01:21:02;;;;;;;15.00;10.57;;;28.50;99.90;;;;;;5077256;28;20338;-62
2022/05/05 01:23:29;;;;;;;16.60;11.18;;;28.50;99.90;;;;;;5076832;28;20433;-62
2022/05/05 01:28:39;;;;;;;13.93;9.68;;;28.50;99.90;;;;;;5077004;28;20388;-65
2022/05/05 01:31:07;;;;;;;11.60;8.47;;;28.50;99.90;;;;;;5077049;28;20025;-63
2022/05/05 01:33:35;;;;;;;15.60;9.98;;;28.50;99.90;;;;;;5077110;28;20024;-66
2022/05/05 01:36:02;;;;;;;12.93;9.27;;;28.60;99.90;;;;;;5077212;28;20025;-64
2022/05/05 01:38:37;;;;;;;12.52;9.10;;;28.60;99.90;;;;;;5076710;28;20024;-63
2022/05/05 01:41:13;;;;;;;12.52;9.73;;;28.70;99.90;;;;;;5076814;28;20439;-63
2022/05/05 01:43:41;;;;;;;15.20;10.40;;;28.70;99.90;;;;;;5076924;28;20032;-65
2022/05/05 01:46:08;;;;;;;18.80;10.63;;;28.70;99.90;;;;;;5076459;28;20142;-64
2022/05/05 01:48:35;;;;;;;15.52;10.18;;;28.80;99.90;;;;;;5076872;28;20028;-66
2022/05/05 01:51:03;;;;;;;15.48;10.90;;;28.90;99.90;;;;;;5076797;28;20025;-64
2022/05/05 01:53:36;;;;;;;11.50;8.88;;;28.90;99.90;;;;;;5076225;28;20037;-65
2022/05/05 01:56:11;;;;;;;17.23;9.65;;;29.00;99.90;;;;;;5076669;28;20029;-64
2022/05/05 01:58:39;;;;;;;19.75;11.13;;;29.10;99.90;;;;;;5076747;28;20020;-65
2022/05/05 02:01:09;;;;;;;26.95;21.65;;;29.30;99.90;;;;;;5075974;28;20485;-64
2022/05/05 02:03:36;;;;;;;35.95;26.83;;;29.30;99.90;;;;;;5076662;28;20041;-64
2022/05/05 02:06:03;;;;;;;32.25;24.17;;;29.30;99.90;;;;;;5076563;28;20140;-64
2022/05/05 02:08:30;;;;;;;27.73;17.40;;;29.40;99.90;;;;;;5076272;28;20466;-67
2022/05/05 02:10:57;;;;;;;25.10;20.00;;;29.50;99.90;;;;;;5076195;28;20036;-64
2022/05/05 02:13:23;;;;;;;19.98;14.68;;;29.60;99.90;;;;;;5075990;28;20029;-65
2022/05/05 02:15:50;;;;;;;13.60;10.77;;;29.60;99.90;;;;;;5075891;28;20080;-65
2022/05/05 02:18:18;;;;;;;42.13;34.15;;;29.70;99.90;;;;;;5075527;28;20020;-65
2022/05/05 02:20:45;;;;;;;19.75;15.82;;;29.70;99.90;;;;;;5076447;28;20103;-65
2022/05/05 02:23:12;;;;;;;20.25;12.85;;;29.80;99.90;;;;;;5073541;28;20086;-65
2022/05/05 02:25:39;;;;;;;23.08;14.75;;;29.90;99.90;;;;;;5076197;28;20029;-65
2022/05/05 02:28:06;;;;;;;16.80;11.27;;;29.80;99.90;;;;;;5076497;28;20335;-64
2022/05/05 02:30:33;;;;;;;158.32;109.97;;;29.80;99.90;;;;;;5073729;28;20028;-64
2022/05/05 02:32:59;;;;;;;80.07;54.92;;;29.70;99.90;;;;;;5076070;28;20386;-64
2022/05/05 02:35:26;;;;;;;21.17;14.43;;;29.60;99.90;;;;;;5076103;28;20047;-62
2022/05/05 02:40:23;;;;;;;32.65;21.10;;;29.70;99.90;;;;;;5075613;28;20051;-62
2022/05/05 02:42:50;;;;;;;39.58;26.95;;;29.80;99.90;;;;;;5075964;28;20094;-62
2022/05/05 02:45:17;;;;;;;17.70;13.32;;;30.00;99.90;;;;;;5075888;28;20106;-63
2022/05/05 02:47:46;;;;;;;19.52;14.48;;;30.00;99.90;;;;;;5075895;28;20032;-62
2022/05/05 02:50:13;;;;;;;15.30;8.82;;;30.00;99.90;;;;;;5073365;28;20024;-62
2022/05/05 02:52:40;;;;;;;15.38;10.52;;;29.90;99.90;;;;;;5075747;28;20036;-62
2022/05/05 02:55:08;;;;;;;19.58;11.45;;;30.00;99.90;;;;;;5074717;28;20024;-62
2022/05/05 02:57:35;;;;;;;18.25;10.10;;;30.00;99.90;;;;;;5075634;28;20032;-62
2022/05/05 03:00:03;;;;;;;15.27;7.97;;;29.90;99.90;;;;;;5075695;28;20028;-63
2022/05/05 03:02:31;;;;;;;12.63;6.93;;;29.90;99.90;;;;;;5075364;28;20086;-64
2022/05/05 03:04:58;;;;;;;18.35;11.15;;;29.80;99.90;;;;;;5075484;28;20038;-62
2022/05/05 03:07:25;;;;;;;27.70;19.67;;;29.80;99.90;;;;;;5075586;28;20039;-64
2022/05/05 03:09:52;;;;;;;52.33;35.80;;;29.70;99.90;;;;;;5074991;28;20285;-62
2022/05/05 03:12:18;;;;;;;22.13;12.07;;;29.70;99.90;;;;;;5075128;28;20377;-63
2022/05/05 03:14:47;;;;;;;30.55;16.20;;;29.90;99.90;;;;;;5074851;28;20041;-63
2022/05/05 03:17:14;;;;;;;16.00;8.40;;;29.90;99.90;;;;;;5054900;28;20036;-61
2022/05/05 03:19:42;;;;;;;19.88;10.63;;;29.90;99.90;;;;;;5055290;28;20029;-64
2022/05/05 03:22:09;;;;;;;18.50;11.45;;;29.90;99.90;;;;;;5055237;28;20076;-60
2022/05/05 03:24:35;;;;;;;72.57;61.30;;;30.00;99.90;;;;;;5054975;28;20028;-58
2022/05/05 03:27:03;;;;;;;168.82;120.72;;;30.20;99.90;;;;;;5055336;28;20033;-60
2022/05/05 03:29:30;;;;;;;43.90;31.00;;;30.40;99.90;;;;;;5074646;28;20028;-63
2022/05/05 03:31:56;;;;;;;26.35;15.65;;;30.40;99.90;;;;;;5074325;28;20106;-59
2022/05/05 03:34:23;;;;;;;16.70;10.13;;;30.40;99.90;;;;;;5074679;28;20075;-56
2022/05/05 03:36:50;;;;;;;123.15;83.65;;;30.30;99.90;;;;;;5074613;28;20024;-59
2022/05/05 03:39:16;;;;;;;32.67;21.63;;;30.40;99.90;;;;;;5074487;28;20021;-62
2022/05/05 03:41:43;;;;;;;20.60;13.25;;;30.50;99.90;;;;;;5074856;28;20028;-62
2022/05/05 03:44:10;;;;;;;20.33;11.18;;;30.60;99.90;;;;;;5074858;28;20117;-61
2022/05/05 03:46:36;;;;;;;19.40;11.18;;;30.70;99.90;;;;;;5074544;28;20028;-59
2022/05/05 03:49:03;;;;;;;36.33;23.73;;;30.60;99.90;;;;;;5074748;28;20077;-62
2022/05/05 03:51:30;;;;;;;21.88;14.88;;;30.70;99.90;;;;;;5074619;28;20052;-62
2022/05/05 03:53:57;;;;;;;26.70;18.80;;;30.60;99.90;;;;;;5074169;28;20024;-62
2022/05/05 03:56:23;;;;;;;108.32;90.90;;;30.50;99.90;;;;;;5074491;28;20063;-60
2022/05/05 03:58:50;;;;;;;117.90;99.55;;;30.50;99.90;;;;;;5074591;28;20028;-62
2022/05/05 04:01:17;;;;;;;42.78;35.10;;;30.70;99.90;;;;;;5074348;28;20020;-60
2022/05/05 04:03:43;;;;;;;189.15;147.90;;;30.70;99.90;;;;;;5074404;28;20186;-62
2022/05/05 04:06:12;;;;;;;40.63;24.45;;;30.70;99.90;;;;;;5074300;28;20056;-60
2022/05/05 04:08:39;;;;;;;61.28;55.10;;;30.70;99.90;;;;;;5073624;28;20039;-59
2022/05/05 04:11:08;;;;;;;24.92;20.88;;;30.80;99.90;;;;;;5071367;28;20028;-58
2022/05/05 04:13:36;;;;;;;20.50;13.45;;;31.00;99.90;;;;;;5073982;28;20031;-60
2022/05/05 04:16:03;;;;;;;41.80;33.45;;;31.00;99.90;;;;;;5073662;28;20170;-62
2022/05/05 04:18:32;;;;;;;9.50;5.85;;;30.90;99.90;;;;;;5074137;28;20036;-59
2022/05/05 04:21:01;;;;;;;10.70;5.82;;;31.00;99.90;;;;;;5073651;28;20055;-61
2022/05/05 04:23:28;;;;;;;129.48;95.13;;;31.10;99.90;;;;;;5073430;28;20024;-61
2022/05/05 04:25:55;;;;;;;10.02;7.43;;;31.10;99.90;;;;;;5073790;28;20020;-61
2022/05/05 04:28:22;;;;;;;10.93;5.65;;;31.20;99.90;;;;;;5074280;28;20033;-62
2022/05/05 04:30:49;;;;;;;8.13;5.35;;;31.10;99.90;;;;;;5070922;28;20035;-61
2022/05/05 04:33:16;;;;;;;22.42;14.95;;;31.00;99.90;;;;;;5074006;28;20060;-63
2022/05/05 04:35:44;;;;;;;30.42;24.70;;;31.00;99.90;;;;;;5073840;28;20028;-62
2022/05/05 04:38:11;;;;;;;25.08;17.55;;;31.00;99.90;;;;;;5073569;28;20457;-59
2022/05/05 04:40:38;;;;;;;52.70;42.10;;;30.90;99.90;;;;;;5073586;28;20056;-62
2022/05/05 04:43:04;;;;;;;31.08;22.13;;;30.90;99.90;;;;;;5073434;28;20105;-64
2022/05/05 04:45:31;;;;;;;21.02;15.27;;;30.90;99.90;;;;;;5073834;28;20024;-62
2022/05/05 04:47:58;;;;;;;21.92;13.07;;;30.80;99.90;;;;;;5073440;28;20381;-61
2022/05/05 04:50:25;;;;;;;14.63;10.95;;;30.80;99.90;;;;;;5073470;28;20020;-61
2022/05/05 04:52:52;;;;;;;13.02;7.10;;;30.80;99.90;;;;;;5073791;28;20473;-62
2022/05/05 04:55:18;;;;;;;12.57;9.20;;;30.80;99.90;;;;;;5073482;28;20039;-63
2022/05/05 04:57:45;;;;;;;10.63;5.63;;;30.80;99.90;;;;;;5073565;28;20099;-62
2022/05/05 05:00:12;;;;;;;10.55;6.35;;;30.80;99.90;;;;;;5073851;28;20028;-61
2022/05/05 05:02:39;;;;;;;9.95;5.28;;;30.90;99.90;;;;;;5073404;28;20013;-61
2022/05/05 05:05:06;;;;;;;9.23;5.35;;;31.00;99.90;;;;;;5073560;28;20032;-60
2022/05/05 05:07:33;;;;;;;13.55;6.60;;;31.00;99.90;;;;;;5073559;28;20032;-62
2022/05/05 05:10:00;;;;;;;13.40;7.45;;;31.20;99.90;;;;;;5073313;28;20025;-61
2022/05/05 05:12:27;;;;;;;14.55;6.95;;;31.40;99.90;;;;;;5073420;28;20109;-60
2022/05/05 05:14:54;;;;;;;8.88;4.60;;;31.60;99.90;;;;;;5072960;28;20053;-62
2022/05/05 05:17:21;;;;;;;11.50;6.10;;;31.70;99.90;;;;;;5073432;28;20035;-61
2022/05/05 05:19:48;;;;;;;7.88;5.85;;;31.60;99.90;;;;;;5073410;28;20075;-61
2022/05/05 05:22:14;;;;;;;7.03;4.57;;;31.60;99.90;;;;;;5073527;28;20048;-59
2022/05/05 05:24:41;;;;;;;9.02;5.10;;;31.60;99.90;;;;;;5072921;28;20501;-62
2022/05/05 05:27:08;;;;;;;17.33;8.50;;;31.80;99.90;;;;;;5073332;28;20040;-61
2022/05/05 05:29:35;;;;;;;18.05;10.00;;;31.90;99.90;;;;;;5072826;28;20479;-58
2022/05/05 05:32:02;;;;;;;12.60;11.00;;;31.90;99.90;;;;;;5073380;28;20043;-62
2022/05/05 05:34:29;;;;;;;9.38;6.63;;;31.90;99.90;;;;;;5073284;28;20029;-62
2022/05/05 05:36:56;;;;;;;14.13;9.68;;;32.00;99.90;;;;;;5072981;28;20377;-62
2022/05/05 05:39:23;;;;;;;6.97;5.00;;;32.20;99.90;;;;;;5073021;28;20056;-61
2022/05/05 05:41:50;;;;;;;16.67;11.15;;;32.40;99.90;;;;;;5073173;28;20496;-61
2022/05/05 05:44:16;;;;;;;12.93;9.20;;;32.50;99.90;;;;;;5072935;28;20029;-61
2022/05/05 05:46:43;;;;;;;11.50;6.78;;;32.60;99.90;;;;;;5072890;28;20119;-58
2022/05/05 05:49:10;;;;;;;41.33;30.60;;;32.70;99.90;;;;;;5073117;28;20025;-59
2022/05/05 05:51:37;;;;;;;18.92;12.85;;;32.90;99.50;;;;;;5073122;28;20029;-61
2022/05/05 05:54:04;;;;;;;119.05;91.03;;;32.90;99.00;;;;;;5073686;28;20039;-58
2022/05/05 05:56:31;;;;;;;22.67;16.98;;;33.10;99.50;;;;;;5076793;28;20025;-59
2022/05/05 05:59:01;;;;;;;15.27;12.65;;;32.90;99.90;;;;;;5076164;28;20027;-58
2022/05/05 06:04:07;;;;;;;60.53;50.55;;;32.70;99.40;;;;;;5076244;28;20025;-59
2022/05/05 06:06:34;;;;;;;170.80;127.63;;;32.70;99.10;;;;;;5076244;28;20059;-59
2022/05/05 06:09:01;;;;;;;233.50;173.32;;;32.60;98.80;;;;;;5076394;28;20035;-60
2022/05/05 06:11:28;;;;;;;36.63;24.80;;;32.50;99.60;;;;;;5076449;28;20039;-59
2022/05/05 06:13:54;;;;;;;19.00;12.57;;;32.50;99.50;;;;;;5076081;28;20034;-58
2022/05/05 06:16:21;;;;;;;55.00;38.00;;;32.50;99.40;;;;;;5075784;28;20436;-58
2022/05/05 06:18:48;;;;;;;15.80;11.65;;;32.40;99.60;;;;;;5076135;28;20465;-59
2022/05/05 06:21:14;;;;;;;15.48;11.20;;;32.20;99.90;;;;;;5076318;28;20028;-59
2022/05/05 06:23:41;;;;;;;11.93;8.10;;;32.10;99.90;;;;;;5076129;28;20387;-59
2022/05/05 06:26:08;;;;;;;10.00;5.82;;;32.00;99.90;;;;;;5076076;28;20025;-62
2022/05/05 06:28:34;;;;;;;21.00;15.50;;;31.70;99.90;;;;;;5075866;28;20034;-61
2022/05/05 06:31:01;;;;;;;123.20;84.45;;;31.60;99.90;;;;;;5075987;28;20024;-61
2022/05/05 06:33:28;;;;;;;19.88;11.57;;;31.40;99.90;;;;;;5076171;28;20428;-61
2022/05/05 06:35:54;;;;;;;28.98;20.33;;;31.10;99.90;;;;;;5075607;28;20028;-61
2022/05/05 06:38:22;;;;;;;25.95;18.75;;;30.90;99.90;;;;;;5075626;28;20044;-61
2022/05/05 06:40:49;;;;;;;11.65;7.55;;;30.80;99.90;;;;;;5075867;28;20020;-61
2022/05/05 06:43:16;;;;;;;12.68;9.60;;;30.90;99.90;;;;;;5075662;28;20024;-60
2022/05/05 06:45:42;;;;;;;6.78;4.43;;;31.00;99.90;;;;;;5075435;28;20485;-61
2022/05/05 06:48:09;;;;;;;8.50;5.20;;;31.20;99.90;;;;;;5075630;28;20028;-60
2022/05/05 06:50:36;;;;;;;9.68;6.65;;;31.50;99.90;;;;;;5075638;28;20051;-60
2022/05/05 06:53:02;;;;;;;9.50;5.28;;;31.60;99.90;;;;;;5075262;28;20512;-60
2022/05/05 06:55:29;;;;;;;6.72;3.53;;;31.70;99.90;;;;;;5075537;28;20082;-62
2022/05/05 06:57:56;;;;;;;6.43;4.45;;;31.90;99.90;;;;;;5075545;28;20025;-61
2022/05/05 07:00:22;;;;;;;15.95;12.23;;;32.10;99.90;;;;;;5075267;28;20032;-61
2022/05/05 07:02:49;;;;;;;11.05;9.48;;;32.20;99.50;;;;;;5075432;28;20099;-61
2022/05/05 07:07:46;;;;;;;17.80;6.03;;;32.30;99.60;;;;;;5075111;28;20027;-62
2022/05/05 07:12:51;;;;;;;10.32;5.07;;;32.60;99.90;;;;;;5074693;28;20020;-60
2022/05/05 07:15:17;;;;;;;28.85;21.13;;;32.60;99.90;;;;;;5074775;28;20161;-61
2022/05/05 07:17:44;;;;;;;22.08;15.98;;;32.60;99.10;;;;;;5075137;28;20099;-61
2022/05/05 07:20:11;;;;;;;7.60;4.55;;;32.60;99.80;;;;;;5074881;28;20028;-61
2022/05/05 07:22:37;;;;;;;10.95;5.63;;;32.60;99.60;;;;;;5075338;28;20020;-61
2022/05/05 07:25:05;;;;;;;16.48;10.45;;;32.70;99.60;;;;;;5074678;28;20077;-61
2022/05/05 07:27:31;;;;;;;8.93;4.60;;;32.80;99.30;;;;;;5074755;28;20151;-61
2022/05/05 07:29:58;;;;;;;11.63;7.85;;;32.80;99.00;;;;;;5074856;28;20066;-62
2022/05/05 07:32:25;;;;;;;28.48;14.45;;;32.90;99.10;;;;;;5074777;28;20032;-61
2022/05/05 07:34:51;;;;;;;41.05;23.08;;;32.90;98.10;;;;;;5074534;28;20024;-60
2022/05/05 07:37:18;;;;;;;18.13;9.05;;;32.90;98.30;;;;;;5074447;28;20393;-62
2022/05/05 07:39:44;;;;;;;8.02;4.95;;;32.90;98.50;;;;;;5074628;28;20028;-61
2022/05/05 07:42:11;;;;;;;13.52;7.68;;;33.00;98.00;;;;;;5074585;28;20064;-60
2022/05/05 07:44:38;;;;;;;14.57;6.05;;;33.20;96.20;;;;;;5074280;28;20111;-61
2022/05/05 07:47:05;;;;;;;14.20;10.43;;;33.20;96.80;;;;;;5074488;28;20029;-61
2022/05/05 07:49:32;;;;;;;12.95;7.43;;;33.00;94.40;;;;;;5074465;28;20062;-64
2022/05/05 07:51:58;;;;;;;10.13;6.38;;;33.00;95.40;;;;;;5073998;28;20024;-63
2022/05/05 07:57:04;;;;;;;7.70;4.68;;;33.00;94.90;;;;;;5073518;28;20078;-63
2022/05/05 07:59:31;;;;;;;12.02;4.55;;;32.70;96.00;;;;;;5073877;28;20028;-64
2022/05/05 08:01:58;;;;;;;6.53;3.80;;;32.40;96.90;;;;;;5074099;28;20100;-66
2022/05/05 08:04:25;;;;;;;8.55;3.13;;;32.10;96.20;;;;;;5073748;28;20499;-63
2022/05/05 08:06:52;;;;;;;9.18;3.20;;;31.80;95.80;;;;;;5074194;28;20032;-67
2022/05/05 08:09:19;;;;;;;5.75;3.33;;;31.50;96.50;;;;;;5074166;28;20031;-66
2022/05/05 08:11:46;;;;;;;5.72;3.20;;;31.30;97.50;;;;;;5074002;28;20025;-65
2022/05/05 08:14:13;;;;;;;9.52;3.35;;;30.70;99.20;;;;;;5073720;28;20044;-65
2022/05/05 08:16:40;;;;;;;10.15;3.67;;;30.50;99.90;;;;;;5073492;28;20137;-66
2022/05/05 08:19:07;;;;;;;9.48;2.85;;;30.10;99.90;;;;;;5073824;28;20016;-63
2022/05/05 08:21:33;;;;;;;15.48;3.80;;;29.90;99.90;;;;;;5073922;28;20025;-66
2022/05/05 08:29:17;;;;;;;16.75;6.10;;;29.10;99.90;;;;;;5073527;28;20021;-64
2022/05/05 08:31:43;;;;;;;21.35;5.95;;;28.90;99.90;;;;;;5073599;28;20024;-64
2022/05/05 08:34:11;;;;;;;13.35;4.93;;;28.90;99.90;;;;;;5073407;28;20027;-65
2022/05/05 08:36:38;;;;;;;7.47;4.13;;;29.00;99.90;;;;;;5073673;28;20029;-62
2022/05/05 08:39:05;;;;;;;11.68;6.18;;;29.20;99.90;;;;;;5073501;28;20066;-62
2022/05/05 08:41:32;;;;;;;12.57;5.55;;;29.20;99.90;;;;;;5073631;28;20444;-62
2022/05/05 08:44:00;;;;;;;9.52;5.63;;;29.20;99.90;;;;;;5073617;28;20029;-64
2022/05/05 08:46:27;;;;;;;5.68;4.43;;;29.30;99.90;;;;;;5073433;28;20097;-60
2022/05/05 08:49:02;;;;;;;5.72;4.75;;;29.40;99.90;;;;;;5073571;28;20032;-62
2022/05/05 08:51:37;;;;;;;7.30;5.03;;;29.40;99.90;;;;;;5073686;28;20099;-63
2022/05/05 08:54:07;;;;;;;9.27;5.50;;;29.40;99.90;;;;;;5073257;28;20039;-62
2022/05/05 08:56:34;;;;;;;7.75;4.82;;;29.40;99.90;;;;;;5073401;28;20028;-62
2022/05/05 08:59:03;;;;;;;7.55;4.70;;;29.40;99.90;;;;;;5073394;28;20519;-61
2022/05/05 09:01:38;;;;;;;6.95;4.75;;;29.50;99.90;;;;;;5073128;28;20485;-60
2022/05/05 09:04:06;;;;;;;9.27;5.40;;;29.60;99.90;;;;;;5073378;28;20028;-61
2022/05/05 09:06:46;;;;;;;8.70;5.47;;;29.60;99.90;;;;;;5073128;28;20044;-61
2022/05/05 09:09:28;;;;;;;11.30;5.25;;;29.60;99.90;;;;;;5073388;28;20052;-61
2022/05/05 09:12:16;;;;;;;10.57;6.75;;;29.60;99.90;;;;;;5073033;28;20033;-63
2022/05/05 09:14:51;;;;;;;9.20;5.65;;;29.50;99.90;;;;;;5073211;28;20048;-61
2022/05/05 09:17:23;;;;;;;18.90;9.25;;;29.50;99.90;;;;;;5073265;28;20025;-64
2022/05/05 09:19:55;;;;;;;17.33;7.80;;;29.40;99.90;;;;;;5073341;28;20025;-65
2022/05/05 09:22:24;;;;;;;11.73;7.57;;;29.50;99.90;;;;;;5073124;28;20032;-64
2022/05/05 09:24:53;;;;;;;7.95;5.28;;;29.50;99.90;;;;;;5073257;28;20050;-62
2022/05/05 09:27:34;;;;;;;6.20;4.10;;;29.50;99.90;;;;;;5073552;28;20042;-63
2022/05/05 09:30:13;;;;;;;7.45;4.15;;;29.50;99.90;;;;;;5076187;28;20059;-64
2022/05/05 09:32:41;;;;;;;5.88;4.10;;;29.50;99.90;;;;;;5077062;28;20075;-64
2022/05/05 09:35:21;;;;;;;6.88;4.22;;;29.50;99.90;;;;;;5077085;28;20039;-65
2022/05/05 09:37:50;;;;;;;4.97;4.05;;;29.60;99.90;;;;;;5076904;28;20021;-65
2022/05/05 09:40:20;;;;;;;5.93;4.18;;;29.60;99.90;;;;;;5076525;28;20462;-64
2022/05/05 09:42:51;;;;;;;7.40;4.10;;;29.60;99.90;;;;;;5076870;28;20078;-65
2022/05/05 09:45:25;;;;;;;6.40;4.30;;;29.60;99.90;;;;;;5076870;28;20025;-62
2022/05/05 09:48:13;;;;;;;6.72;4.85;;;29.60;99.90;;;;;;5077157;28;20481;-63
2022/05/05 09:50:40;;;;;;;11.13;5.07;;;29.60;99.90;;;;;;5076441;28;20028;-64
2022/05/05 09:59:00;;;;;;;11.88;7.25;;;29.50;99.90;;;;;;5076347;28;20059;-64
2022/05/05 10:01:32;;;;;;;9.90;6.68;;;29.50;99.90;;;;;;5076582;28;20116;-63
2022/05/05 10:04:00;;;;;;;10.52;6.70;;;29.60;99.90;;;;;;5076387;28;20024;-64
2022/05/05 10:06:36;;;;;;;9.95;6.25;;;29.60;99.90;;;;;;5076269;28;20385;-63
2022/05/05 10:09:04;;;;;;;7.97;5.60;;;29.70;99.90;;;;;;5076456;28;20085;-64
2022/05/05 10:11:31;;;;;;;10.90;5.75;;;29.70;99.90;;;;;;5076329;28;20541;-64
2022/05/05 10:14:04;;;;;;;10.55;5.22;;;29.70;99.90;;;;;;5076104;28;20039;-64
2022/05/05 10:16:31;;;;;;;7.10;4.97;;;29.80;99.90;;;;;;5075835;28;20041;-61
2022/05/05 10:18:59;;;;;;;8.63;5.75;;;29.80;99.90;;;;;;5076564;28;20406;-63
2022/05/05 10:21:31;;;;;;;10.15;5.95;;;29.90;99.90;;;;;;5076054;28;20042;-63
2022/05/05 10:24:10;;;;;;;12.35;5.72;;;29.90;99.90;;;;;;5076126;28;20017;-64
2022/05/05 10:26:37;;;;;;;6.47;4.93;;;30.00;99.90;;;;;;5075948;28;20024;-66
2022/05/05 10:29:04;;;;;;;17.17;8.20;;;30.00;99.90;;;;;;5076068;28;20020;-63
2022/05/05 10:31:31;;;;;;;14.63;8.57;;;30.00;99.90;;;;;;5076168;28;20070;-62
2022/05/05 10:34:16;;;;;;;21.95;10.18;;;30.00;99.90;;;;;;5075706;28;20091;-65
2022/05/05 10:36:59;;;;;;;25.15;11.02;;;30.00;99.90;;;;;;5075917;28;20024;-65
2022/05/05 10:39:39;;;;;;;23.23;10.43;;;30.00;99.90;;;;;;5075291;28;20063;-64
2022/05/05 10:42:16;;;;;;;15.57;8.43;;;29.90;99.90;;;;;;5075808;28;20025;-63
2022/05/05 10:45:05;;;;;;;13.90;7.78;;;29.90;99.90;;;;;;5075772;28;20032;-65
2022/05/05 10:47:55;;;;;;;22.73;8.95;;;29.90;99.90;;;;;;5075570;28;20025;-64
2022/05/05 10:53:29;;;;;;;24.00;11.23;;;30.00;99.90;;;;;;5075324;28;20029;-62
2022/05/05 10:55:56;;;;;;;19.02;10.60;;;30.00;99.90;;;;;;5075295;28;20035;-61
2022/05/05 10:58:46;;;;;;;24.33;15.27;;;30.00;99.90;;;;;;5075526;28;20020;-63
2022/05/05 11:01:12;;;;;;;33.25;20.63;;;30.00;99.90;;;;;;5075323;28;20023;-62
2022/05/05 11:04:20;;;;;;;28.42;20.45;;;30.00;99.90;;;;;;5075411;28;20112;-62
2022/05/05 11:06:50;;;;;;;39.45;25.92;;;30.00;99.90;;;;;;5075322;28;20028;-60
2022/05/05 11:09:29;;;;;;;33.75;22.83;;;30.00;99.90;;;;;;5075296;28;20104;-60
2022/05/05 11:12:22;;;;;;;37.58;21.30;;;30.00;99.90;;;;;;5075065;28;20040;-60
2022/05/05 11:23:28;;;;;;;35.97;17.95;;;29.90;99.90;;;;;;5074902;28;20385;-62
2022/05/05 11:25:55;;;;;;;35.33;18.92;;;29.90;99.90;;;;;;5074970;28;20040;-60
2022/05/05 11:28:22;;;;;;;33.33;20.33;;;29.90;99.90;;;;;;5074165;28;20063;-60
2022/05/05 11:30:49;;;;;;;40.53;23.50;;;29.90;99.90;;;;;;5074709;28;20028;-60
2022/05/05 11:33:19;;;;;;;36.53;20.33;;;29.90;99.90;;;;;;5074776;28;20103;-60
2022/05/05 11:36:02;;;;;;;28.00;17.88;;;29.80;99.90;;;;;;5074586;28;20481;-59
2022/05/05 11:38:29;;;;;;;;;;;29.80;99.90;;;;;;5075119;28;20024;-59
2022/05/05 11:41:01;;;;;;;31.85;18.77;;;29.70;99.90;;;;;;5074699;28;19904;-60
2022/05/05 11:46:08;;;;;;;38.13;23.75;;;29.70;99.90;;;;;;5074567;28;20020;-60
2022/05/05 11:48:35;;;;;;;43.42;24.45;;;29.60;99.90;;;;;;5074544;28;20028;-62
2022/05/05 11:51:06;;;;;;;36.03;22.45;;;29.50;99.90;;;;;;5073832;28;20031;-60
2022/05/05 11:53:33;;;;;;;39.97;22.70;;;29.50;99.90;;;;;;5074342;28;20036;-62
2022/05/05 11:55:59;;;;;;;35.28;22.23;;;29.50;99.90;;;;;;5074103;28;20033;-59
2022/05/05 12:04:00;;;;;;;28.58;16.60;;;29.40;99.90;;;;;;5073894;28;20389;-60
2022/05/05 12:06:28;;;;;;;25.75;16.33;;;29.30;99.90;;;;;;5074184;28;20081;-59
2022/05/05 12:08:57;;;;;;;29.80;17.60;;;29.30;99.90;;;;;;5074099;28;20031;-62
2022/05/05 12:11:29;;;;;;;35.30;18.10;;;29.30;99.90;;;;;;5073985;28;20040;-62
2022/05/05 12:14:00;;;;;;;35.78;20.80;;;29.20;99.90;;;;;;5073815;28;20031;-58
2022/05/05 12:16:32;;;;;;;39.55;22.33;;;29.20;99.90;;;;;;5073592;28;20501;-59
2022/05/05 12:18:59;;;;;;;38.07;22.73;;;29.20;99.90;;;;;;5073948;28;20446;-58
2022/05/05 12:21:27;;;;;;;32.13;20.30;;;29.20;99.90;;;;;;5073906;28;20056;-58
2022/05/05 12:23:56;;;;;;;27.50;17.10;;;29.10;99.90;;;;;;5073817;28;20074;-60
2022/05/05 12:26:29;;;;;;;28.85;15.98;;;29.00;99.90;;;;;;5073407;28;20104;-62
2022/05/05 12:28:56;;;;;;;23.75;14.60;;;28.90;99.90;;;;;;5073678;28;20020;-61
2022/05/05 12:31:24;;;;;;;21.58;14.52;;;28.90;99.90;;;;;;5074029;28;20033;-61
2022/05/05 12:33:52;;;;;;;35.40;17.70;;;28.90;99.90;;;;;;5073763;28;20025;-59
2022/05/05 12:36:18;;;;;;;31.60;16.02;;;28.80;99.90;;;;;;5073842;28;20389;-62
2022/05/05 12:38:45;;;;;;;28.20;16.90;;;28.80;99.90;;;;;;5073920;28;20025;-59
2022/05/05 12:41:12;;;;;;;25.52;15.63;;;28.90;99.90;;;;;;5073684;28;20024;-58
2022/05/05 12:43:41;;;;;;;28.98;15.25;;;29.00;99.90;;;;;;5073712;28;20021;-59
2022/05/05 12:46:08;;;;;;;22.90;14.15;;;29.00;99.90;;;;;;5073574;28;20032;-61
2022/05/05 12:48:40;;;;;;;21.95;14.25;;;29.00;99.90;;;;;;5073817;28;20036;-59
2022/05/05 12:51:17;;;;;;;22.67;12.65;;;29.10;99.90;;;;;;5073869;28;20039;-60
2022/05/05 13:01:44;;;;;;;21.33;11.43;;;29.00;99.90;;;;;;5073128;28;20452;-62
2022/05/05 13:04:14;;;;;;;19.75;11.65;;;29.00;99.90;;;;;;5061587;28;20421;-59
2022/05/05 13:06:43;;;;;;;23.02;12.05;;;29.00;99.90;;;;;;5053578;28;20036;-60
2022/05/05 13:09:11;;;;;;;27.88;12.85;;;29.00;99.90;;;;;;5064251;28;20025;-61
2022/05/05 13:11:40;;;;;;;202.60;137.98;;;29.00;99.90;;;;;;5060438;28;20028;-61
2022/05/05 13:14:07;;;;;;;48.13;28.38;;;29.00;99.90;;;;;;5066916;28;20021;-62
2022/05/05 13:16:35;;;;;;;60.05;43.08;;;29.00;99.90;;;;;;5059928;28;20049;-60
2022/05/05 13:19:03;;;;;;;91.70;69.25;;;29.00;99.90;;;;;;5053160;28;20028;-61
2022/05/05 13:21:33;;;;;;;68.22;50.53;;;29.00;99.90;;;;;;5052538;28;20530;-61
2022/05/05 13:24:00;;;;;;;22.15;15.25;;;29.00;99.90;;;;;;5058174;28;20037;-62
2022/05/05 13:26:27;;;;;;;76.57;61.35;;;29.00;99.90;;;;;;5071946;28;20025;-60
2022/05/05 13:28:53;;;;;;;83.18;59.72;;;29.00;99.90;;;;;;5073630;28;20680;-62
2022/05/05 13:31:20;;;;;;;77.28;48.20;;;28.90;99.90;;;;;;5072313;28;20048;-60
2022/05/05 13:33:47;;;;;;;79.70;53.80;;;28.90;99.90;;;;;;5060958;28;20025;-61
2022/05/05 13:36:14;;;;;;;43.85;31.00;;;29.00;99.90;;;;;;5057434;28;20114;-60
2022/05/05 13:38:41;;;;;;;38.47;25.15;;;28.90;99.90;;;;;;5055538;28;20021;-58